ACA523 EHAM-CYYZ
Flight info
| Callsign | ACA523 |
|---|---|
| Flight time | N/A |
| Altitude | 36000 |
| Route | BERGI L60 PENIL M144 BAGSO DCT OLAPO DCT DOGAL/M082F360 DCT 54N020W 54N030W 54N040W 52N050W DCT TUDEP/N0467F380 N530A MIILS DCT VILRO DCT SAVEX Q806 TUKIR IMEBA9 |
| Aircraft | B77W/H-SDE1E2E3FGHIJ2J3J4J5M1RWXY/LB1D1 |
Departure
| Time | 2026-04-27 05:34 |
|---|---|
| Airport | Amsterdam Airport Schiphol (EHAM) |
Arrival
| Time | N/A |
|---|---|
| Airport | Toronto Pearson International Airport (CYYZ) |
| Time | Latitude | Longitude | Altitude | Speed | Heading |
|---|---|---|---|---|---|
| 2026-04-27 04:53 | 52.31285 | 4.75575 | 9 ft | 0 kts | 86° |
| 2026-04-27 05:10 | 52.31285 | 4.75571 | 9 ft | 4 kts | 86° |
| 2026-04-27 05:10 | 52.31282 | 4.75544 | 9 ft | 2 kts | 70° |
| 2026-04-27 05:10 | 52.31276 | 4.75522 | 9 ft | 2 kts | 59° |
| 2026-04-27 05:11 | 52.31267 | 4.75502 | 9 ft | 2 kts | 48° |
| 2026-04-27 05:11 | 52.31256 | 4.75485 | 9 ft | 2 kts | 36° |
| 2026-04-27 05:11 | 52.31244 | 4.75472 | 9 ft | 2 kts | 25° |
| 2026-04-27 05:11 | 52.31230 | 4.75464 | 9 ft | 2 kts | 14° |
| 2026-04-27 05:12 | 52.31216 | 4.75460 | 8 ft | 2 kts | 3° |
| 2026-04-27 05:12 | 52.31201 | 4.75460 | 8 ft | 2 kts | 354° |
| 2026-04-27 05:12 | 52.31197 | 4.75461 | 8 ft | 0 kts | 354° |
| 2026-04-27 05:13 | 52.31200 | 4.75460 | 8 ft | 4 kts | 354° |
| 2026-04-27 05:14 | 52.31245 | 4.75454 | 8 ft | 6 kts | 356° |
| 2026-04-27 05:14 | 52.31291 | 4.75449 | 8 ft | 6 kts | 356° |
| 2026-04-27 05:14 | 52.31332 | 4.75444 | 8 ft | 0 kts | 356° |
| 2026-04-27 05:22 | 52.31335 | 4.75444 | 8 ft | 3 kts | 356° |
| 2026-04-27 05:22 | 52.31429 | 4.75435 | 8 ft | 16 kts | 357° |
| 2026-04-27 05:22 | 52.31506 | 4.75377 | 7 ft | 13 kts | 284° |
| 2026-04-27 05:22 | 52.31503 | 4.75226 | 6 ft | 13 kts | 267° |
| 2026-04-27 05:23 | 52.31499 | 4.75078 | 4 ft | 13 kts | 268° |
| 2026-04-27 05:23 | 52.31495 | 4.74922 | 3 ft | 13 kts | 268° |
| 2026-04-27 05:23 | 52.31490 | 4.74769 | 1 ft | 13 kts | 268° |
| 2026-04-27 05:23 | 52.31486 | 4.74609 | 0 ft | 13 kts | 268° |
| 2026-04-27 05:24 | 52.31480 | 4.74459 | 0 ft | 12 kts | 266° |
| 2026-04-27 05:24 | 52.31490 | 4.74329 | 0 ft | 11 kts | 310° |
| 2026-04-27 05:24 | 52.31559 | 4.74296 | 0 ft | 10 kts | 2° |
| 2026-04-27 05:24 | 52.31630 | 4.74300 | 0 ft | 10 kts | 2° |
| 2026-04-27 05:25 | 52.31699 | 4.74305 | 0 ft | 9 kts | 2° |
| 2026-04-27 05:25 | 52.31778 | 4.74310 | 0 ft | 13 kts | 3° |
| 2026-04-27 05:25 | 52.31890 | 4.74321 | 0 ft | 17 kts | 4° |
| 2026-04-27 05:25 | 52.31988 | 4.74331 | 0 ft | 13 kts | 354° |
| 2026-04-27 05:26 | 52.32029 | 4.74224 | 0 ft | 12 kts | 274° |
| 2026-04-27 05:26 | 52.32034 | 4.74090 | 0 ft | 11 kts | 274° |
| 2026-04-27 05:26 | 52.32038 | 4.73964 | 0 ft | 10 kts | 274° |
| 2026-04-27 05:26 | 52.32042 | 4.73852 | 1 ft | 8 kts | 274° |
| 2026-04-27 05:27 | 52.32046 | 4.73751 | 2 ft | 9 kts | 273° |
| 2026-04-27 05:27 | 52.32052 | 4.73577 | 2 ft | 17 kts | 273° |
| 2026-04-27 05:27 | 52.32077 | 4.73398 | 2 ft | 15 kts | 307° |
| 2026-04-27 05:27 | 52.32151 | 4.73272 | 1 ft | 15 kts | 319° |
| 2026-04-27 05:28 | 52.32232 | 4.73155 | 0 ft | 15 kts | 319° |
| 2026-04-27 05:28 | 52.32309 | 4.73047 | 0 ft | 13 kts | 319° |
| 2026-04-27 05:28 | 52.32379 | 4.72946 | 0 ft | 12 kts | 319° |
| 2026-04-27 05:28 | 52.32443 | 4.72855 | 0 ft | 12 kts | 319° |
| 2026-04-27 05:29 | 52.32520 | 4.72745 | 0 ft | 17 kts | 319° |
| 2026-04-27 05:29 | 52.32598 | 4.72635 | 1 ft | 13 kts | 319° |
| 2026-04-27 05:29 | 52.32661 | 4.72543 | 2 ft | 11 kts | 317° |
| 2026-04-27 05:29 | 52.32710 | 4.72454 | 2 ft | 10 kts | 312° |
| 2026-04-27 05:30 | 52.32766 | 4.72350 | 2 ft | 13 kts | 312° |
| 2026-04-27 05:30 | 52.32825 | 4.72231 | 2 ft | 14 kts | 294° |
| 2026-04-27 05:30 | 52.32838 | 4.72044 | 2 ft | 16 kts | 271° |
| 2026-04-27 05:30 | 52.32881 | 4.71885 | 1 ft | 15 kts | 311° |
| 2026-04-27 05:31 | 52.32953 | 4.71754 | 0 ft | 15 kts | 312° |
| 2026-04-27 05:31 | 52.33022 | 4.71628 | 0 ft | 14 kts | 312° |
| 2026-04-27 05:31 | 52.33081 | 4.71507 | 0 ft | 12 kts | 289° |
| 2026-04-27 05:31 | 52.33054 | 4.71378 | 0 ft | 12 kts | 226° |
| 2026-04-27 05:32 | 52.32989 | 4.71287 | 0 ft | 11 kts | 220° |
| 2026-04-27 05:32 | 52.32928 | 4.71203 | 0 ft | 10 kts | 220° |
| 2026-04-27 05:32 | 52.32878 | 4.71116 | 0 ft | 10 kts | 239° |
| 2026-04-27 05:32 | 52.32869 | 4.71080 | 0 ft | 0 kts | 257° |
| 2026-04-27 05:33 | 52.32867 | 4.71062 | 0 ft | 5 kts | 257° |
| 2026-04-27 05:33 | 52.32867 | 4.70968 | 0 ft | 9 kts | 291° |
| 2026-04-27 05:33 | 52.32910 | 4.70901 | 0 ft | 9 kts | 342° |
| 2026-04-27 05:33 | 52.32974 | 4.70896 | 0 ft | 13 kts | 3° |
| 2026-04-27 05:34 | 52.33295 | 4.70926 | 0 ft | 89 kts | 3° |
| 2026-04-27 05:34 | 52.34209 | 4.71004 | 21 ft | 170 kts | 3° |
| 2026-04-27 05:34 | 52.35507 | 4.71122 | 731 ft | 197 kts | 5° |
| 2026-04-27 05:34 | 52.36826 | 4.71249 | 2207 ft | 199 kts | 5° |
| 2026-04-27 05:35 | 52.38202 | 4.71380 | 3502 ft | 211 kts | 4° |
| 2026-04-27 05:35 | 52.39676 | 4.71516 | 4720 ft | 226 kts | 4° |
| 2026-04-27 05:35 | 52.41272 | 4.71662 | 5926 ft | 242 kts | 2° |
| 2026-04-27 05:35 | 52.42933 | 4.71292 | 7150 ft | 253 kts | 339° |
| 2026-04-27 05:36 | 52.44417 | 4.69792 | 8465 ft | 260 kts | 318° |
| 2026-04-27 05:36 | 52.45686 | 4.67731 | 9761 ft | 266 kts | 314° |
| 2026-04-27 05:36 | 52.46964 | 4.65581 | 11076 ft | 269 kts | 314° |
| 2026-04-27 05:36 | 52.48289 | 4.63390 | 12107 ft | 284 kts | 314° |
| 2026-04-27 05:37 | 52.49703 | 4.61074 | 13108 ft | 299 kts | 314° |
| 2026-04-27 05:37 | 52.51219 | 4.58615 | 14110 ft | 315 kts | 317° |
| 2026-04-27 05:37 | 52.53022 | 4.56474 | 15097 ft | 331 kts | 328° |
| 2026-04-27 05:37 | 52.55049 | 4.54558 | 16087 ft | 346 kts | 329° |
| 2026-04-27 05:38 | 52.57156 | 4.52600 | 17074 ft | 359 kts | 328° |
| 2026-04-27 05:38 | 52.59348 | 4.50549 | 17997 ft | 373 kts | 328° |
| 2026-04-27 05:38 | 52.61634 | 4.48402 | 19031 ft | 383 kts | 328° |
| 2026-04-27 05:38 | 52.63944 | 4.46226 | 20134 ft | 390 kts | 328° |
| 2026-04-27 05:39 | 52.66288 | 4.44014 | 21170 ft | 397 kts | 328° |
| 2026-04-27 05:39 | 52.68714 | 4.41722 | 22190 ft | 404 kts | 328° |
| 2026-04-27 05:39 | 52.71094 | 4.39264 | 23218 ft | 407 kts | 321° |
| 2026-04-27 05:39 | 52.73219 | 4.36177 | 24229 ft | 409 kts | 311° |
| 2026-04-27 05:40 | 52.74975 | 4.32559 | 25221 ft | 411 kts | 301° |
| 2026-04-27 05:40 | 52.76344 | 4.28440 | 26202 ft | 413 kts | 291° |
| 2026-04-27 05:40 | 52.77335 | 4.23974 | 27144 ft | 416 kts | 287° |
| 2026-04-27 05:40 | 52.78234 | 4.19468 | 27980 ft | 419 kts | 287° |
| 2026-04-27 05:41 | 52.79141 | 4.14910 | 28770 ft | 423 kts | 287° |
| 2026-04-27 05:41 | 52.80056 | 4.10313 | 29483 ft | 428 kts | 286° |
| 2026-04-27 05:41 | 52.80990 | 4.05625 | 30156 ft | 432 kts | 286° |
| 2026-04-27 05:41 | 52.81950 | 4.00795 | 30301 ft | 447 kts | 286° |
| 2026-04-27 05:42 | 52.82926 | 3.95883 | 30511 ft | 459 kts | 286° |
| 2026-04-27 05:42 | 52.83913 | 3.90913 | 31554 ft | 453 kts | 286° |
| 2026-04-27 05:42 | 52.84863 | 3.86126 | 32905 ft | 439 kts | 286° |
| 2026-04-27 05:42 | 52.85806 | 3.81363 | 34005 ft | 429 kts | 286° |
| 2026-04-27 05:43 | 52.86720 | 3.76726 | 34614 ft | 427 kts | 286° |
| 2026-04-27 05:43 | 52.87641 | 3.72043 | 35022 ft | 429 kts | 286° |
| 2026-04-27 05:43 | 52.88553 | 3.67400 | 35348 ft | 431 kts | 286° |
| 2026-04-27 05:43 | 52.89475 | 3.62689 | 35733 ft | 430 kts | 286° |
| 2026-04-27 05:44 | 52.90393 | 3.57992 | 36107 ft | 429 kts | 287° |
| 2026-04-27 05:44 | 52.91305 | 3.53315 | 36262 ft | 434 kts | 287° |
| 2026-04-27 05:44 | 52.92239 | 3.48509 | 36283 ft | 443 kts | 287° |
| 2026-04-27 05:45 | 52.94156 | 3.38611 | 36300 ft | 460 kts | 287° |
| 2026-04-27 05:45 | 52.96114 | 3.28447 | 36300 ft | 471 kts | 286° |
| 2026-04-27 05:46 | 52.98095 | 3.18121 | 36290 ft | 475 kts | 286° |
| 2026-04-27 05:46 | 53.00042 | 3.07914 | 36299 ft | 462 kts | 286° |
| 2026-04-27 05:47 | 53.01952 | 2.97843 | 36296 ft | 458 kts | 286° |
| 2026-04-27 05:47 | 53.03827 | 2.87900 | 36297 ft | 458 kts | 286° |
| 2026-04-27 05:48 | 53.05722 | 2.77799 | 36279 ft | 458 kts | 286° |
| 2026-04-27 05:48 | 53.07608 | 2.67693 | 36278 ft | 458 kts | 286° |
| 2026-04-27 05:49 | 53.09477 | 2.57626 | 36275 ft | 459 kts | 286° |
| 2026-04-27 05:49 | 53.11089 | 2.47338 | 36280 ft | 465 kts | 278° |
| 2026-04-27 05:50 | 53.11981 | 2.36772 | 36277 ft | 470 kts | 277° |
| 2026-04-27 05:50 | 53.12843 | 2.26194 | 36274 ft | 471 kts | 277° |
| 2026-04-27 05:51 | 53.13719 | 2.15340 | 36278 ft | 472 kts | 277° |
| 2026-04-27 05:51 | 53.14578 | 2.04572 | 36285 ft | 472 kts | 277° |
| 2026-04-27 05:52 | 53.15432 | 1.93724 | 36285 ft | 473 kts | 277° |
| 2026-04-27 05:52 | 53.16274 | 1.82913 | 36270 ft | 472 kts | 277° |
| 2026-04-27 05:53 | 53.17109 | 1.72060 | 36277 ft | 472 kts | 277° |
| 2026-04-27 05:53 | 53.17932 | 1.61229 | 36278 ft | 473 kts | 277° |
| 2026-04-27 05:54 | 53.18744 | 1.50431 | 36269 ft | 473 kts | 277° |
| 2026-04-27 05:54 | 53.19548 | 1.39572 | 36272 ft | 473 kts | 277° |
| 2026-04-27 05:55 | 53.20346 | 1.28676 | 36273 ft | 474 kts | 276° |
| 2026-04-27 05:55 | 53.21132 | 1.17804 | 36277 ft | 475 kts | 276° |
| 2026-04-27 05:56 | 53.21916 | 1.06811 | 36271 ft | 475 kts | 276° |
| 2026-04-27 05:56 | 53.22683 | 0.95916 | 36276 ft | 476 kts | 276° |
| 2026-04-27 05:57 | 53.23442 | 0.84985 | 36277 ft | 476 kts | 276° |
| 2026-04-27 05:57 | 53.24193 | 0.74018 | 36275 ft | 475 kts | 276° |
| 2026-04-27 05:58 | 53.24928 | 0.63135 | 36275 ft | 476 kts | 276° |
| 2026-04-27 05:58 | 53.25657 | 0.52208 | 36272 ft | 476 kts | 276° |
| 2026-04-27 05:59 | 53.26374 | 0.41280 | 36275 ft | 476 kts | 276° |
| 2026-04-27 05:59 | 53.27082 | 0.30351 | 36275 ft | 477 kts | 276° |
| 2026-04-27 06:00 | 53.28120 | 0.14029 | 36275 ft | 477 kts | 276° |
| 2026-04-27 06:00 | 53.28800 | 0.03136 | 36274 ft | 478 kts | 276° |
| 2026-04-27 06:01 | 53.29752 | -0.06888 | 36270 ft | 479 kts | 280° |
| 2026-04-27 06:01 | 53.30909 | -0.17636 | 36269 ft | 479 kts | 280° |
| 2026-04-27 06:02 | 53.32061 | -0.28615 | 36265 ft | 478 kts | 280° |
| 2026-04-27 06:02 | 53.33182 | -0.39506 | 36267 ft | 478 kts | 280° |
| 2026-04-27 06:03 | 53.34296 | -0.50506 | 36269 ft | 479 kts | 280° |
| 2026-04-27 06:03 | 53.35393 | -0.61469 | 36269 ft | 478 kts | 280° |
| 2026-04-27 06:04 | 53.36476 | -0.72412 | 36273 ft | 479 kts | 279° |
| 2026-04-27 06:04 | 53.37553 | -0.83396 | 36271 ft | 479 kts | 279° |
| 2026-04-27 06:05 | 53.38611 | -0.94289 | 36270 ft | 480 kts | 279° |
| 2026-04-27 06:05 | 53.39662 | -1.05251 | 36274 ft | 480 kts | 279° |
| 2026-04-27 06:06 | 53.40705 | -1.16236 | 36272 ft | 479 kts | 279° |
| 2026-04-27 06:06 | 53.41736 | -1.27208 | 36278 ft | 480 kts | 279° |
| 2026-04-27 06:07 | 53.42757 | -1.38194 | 36270 ft | 481 kts | 280° |
| 2026-04-27 06:07 | 53.43777 | -1.49276 | 36268 ft | 482 kts | 280° |
| 2026-04-27 06:08 | 53.44783 | -1.60319 | 36269 ft | 482 kts | 280° |
| 2026-04-27 06:08 | 53.45784 | -1.71442 | 36272 ft | 483 kts | 279° |
| 2026-04-27 06:09 | 53.46765 | -1.82442 | 36270 ft | 482 kts | 279° |
| 2026-04-27 06:09 | 53.47743 | -1.93542 | 36275 ft | 483 kts | 279° |
| 2026-04-27 06:10 | 53.48709 | -2.04616 | 36280 ft | 483 kts | 279° |
| 2026-04-27 06:10 | 53.49668 | -2.15738 | 36288 ft | 483 kts | 280° |
| 2026-04-27 06:11 | 53.50616 | -2.26863 | 36290 ft | 484 kts | 280° |
| 2026-04-27 06:11 | 53.51558 | -2.38042 | 36297 ft | 485 kts | 280° |
| 2026-04-27 06:12 | 53.52484 | -2.49161 | 36297 ft | 485 kts | 280° |
| 2026-04-27 06:12 | 53.53406 | -2.60360 | 36298 ft | 485 kts | 280° |
| 2026-04-27 06:13 | 53.54314 | -2.71519 | 36303 ft | 486 kts | 279° |
| 2026-04-27 06:13 | 53.55221 | -2.82800 | 36302 ft | 487 kts | 279° |
| 2026-04-27 06:14 | 53.56112 | -2.94025 | 36301 ft | 487 kts | 280° |